Broadbent, Oregon
Current Conditions -  °F | °C
As of 5:35 AM on Wednesday 22 Oct 2014 (Local Time) from KOTH Reporting Station
Overcast Overcast  
Wind Chill: 57°   Ceiling: 1900
Heat Index: 57°   Visibility: 10mi
Dew Point: 57°   Wind: 10mph
Humidity: 100%   Direction: 150°SSE
Pressure: 29.85"   Gusts: 16mph
Location:  43.01°N, 124.15°W
Report Text: KOTH 221235Z 15009G14KT 10SM OVC019 14/14 A2985 RMK AO1 P0004
Loading
Personal Weather Stations






























Interactive Weather Map
Tropical Storm Tracking
New forecast layout! Learn more

10-Day Weather Forecast

Advertisements
Track Severe Weather on mobile